sensor_id;sensor_type;location;lat;lon;timestamp;pressure;altitude;pressure_sealevel;temperature;humidity
46876;BME280;32866;50.160;14.768;2023-04-29T00:02:04;98974.25;;;9.44;100.00
46876;BME280;32866;50.160;14.768;2023-04-29T00:04:29;98975.81;;;9.32;100.00
46876;BME280;32866;50.160;14.768;2023-04-29T00:06:55;98952.53;;;9.02;100.00
46876;BME280;32866;50.160;14.768;2023-04-29T00:09:20;98956.66;;;9.19;100.00
46876;BME280;32866;50.160;14.768;2023-04-29T00:11:46;98985.84;;;9.48;100.00
46876;BME280;32866;50.160;14.768;2023-04-29T00:14:15;98982.38;;;9.09;100.00
46876;BME280;32866;50.160;14.768;2023-04-29T00:16:40;98959.28;;;8.84;100.00
46876;BME280;32866;50.160;14.768;2023-04-29T00:19:06;98935.00;;;8.61;100.00
46876;BME280;32866;50.160;14.768;2023-04-29T00:21:31;98982.38;;;8.83;100.00
46876;BME280;32866;50.160;14.768;2023-04-29T00:23:57;98969.03;;;8.85;100.00
46876;BME280;32866;50.160;14.768;2023-04-29T00:26:23;98965.19;;;8.96;100.00
46876;BME280;32866;50.160;14.768;2023-04-29T00:28:48;98979.31;;;8.94;100.00
46876;BME280;32866;50.160;14.768;2023-04-29T00:31:13;98978.41;;;8.84;100.00
46876;BME280;32866;50.160;14.768;2023-04-29T00:33:39;98962.34;;;8.73;100.00
46876;BME280;32866;50.160;14.768;2023-04-29T00:36:05;98969.34;;;8.87;100.00
46876;BME280;32866;50.160;14.768;2023-04-29T00:38:31;98961.81;;;8.79;100.00
46876;BME280;32866;50.160;14.768;2023-04-29T00:40:56;98951.31;;;8.77;100.00
46876;BME280;32866;50.160;14.768;2023-04-29T00:43:21;98957.97;;;8.76;100.00
46876;BME280;32866;50.160;14.768;2023-04-29T00:45:47;98971.22;;;9.03;100.00
46876;BME280;32866;50.160;14.768;2023-04-29T00:48:13;98966.06;;;9.18;100.00
46876;BME280;32866;50.160;14.768;2023-04-29T00:50:41;98962.56;;;9.31;100.00
46876;BME280;32866;50.160;14.768;2023-04-29T00:53:08;98974.16;;;9.35;100.00
46876;BME280;32866;50.160;14.768;2023-04-29T00:55:34;98977.75;;;9.32;100.00
46876;BME280;32866;50.160;14.768;2023-04-29T00:58:01;98963.09;;;9.38;100.00
46876;BME280;32866;50.160;14.768;2023-04-29T01:00:28;98970.09;;;9.52;100.00
46876;BME280;32866;50.160;14.768;2023-04-29T01:02:55;98983.66;;;9.56;100.00
46876;BME280;32866;50.160;14.768;2023-04-29T01:05:22;98940.91;;;9.36;100.00
46876;BME280;32866;50.160;14.768;2023-04-29T01:08:24;98974.34;;;9.53;100.00
46876;BME280;32866;50.160;14.768;2023-04-29T01:10:58;98969.28;;;9.64;100.00
46876;BME280;32866;50.160;14.768;2023-04-29T01:16:10;98966.47;;;9.55;100.00
46876;BME280;32866;50.160;14.768;2023-04-29T01:18:53;98940.38;;;9.16;100.00
46876;BME280;32866;50.160;14.768;2023-04-29T01:21:19;98966.38;;;9.33;100.00
46876;BME280;32866;50.160;14.768;2023-04-29T01:23:45;98945.69;;;9.45;100.00
46876;BME280;32866;50.160;14.768;2023-04-29T01:26:10;98955.44;;;9.33;100.00
46876;BME280;32866;50.160;14.768;2023-04-29T01:28:51;98943.31;;;9.47;100.00
46876;BME280;32866;50.160;14.768;2023-04-29T01:31:26;98951.00;;;9.61;100.00
46876;BME280;32866;50.160;14.768;2023-04-29T01:34:07;98937.47;;;9.58;100.00
46876;BME280;32866;50.160;14.768;2023-04-29T01:40:08;98932.53;;;9.65;100.00
46876;BME280;32866;50.160;14.768;2023-04-29T01:42:18;98914.78;;;9.35;100.00
46876;BME280;32866;50.160;14.768;2023-04-29T01:44:48;98947.53;;;9.48;100.00
46876;BME280;32866;50.160;14.768;2023-04-29T01:47:15;98917.09;;;9.24;100.00
46876;BME280;32866;50.160;14.768;2023-04-29T01:49:41;98950.59;;;9.50;100.00
46876;BME280;32866;50.160;14.768;2023-04-29T01:52:06;98938.16;;;9.36;100.00
46876;BME280;32866;50.160;14.768;2023-04-29T01:54:32;98933.00;;;9.38;100.00
46876;BME280;32866;50.160;14.768;2023-04-29T01:57:01;98956.94;;;9.60;100.00
46876;BME280;32866;50.160;14.768;2023-04-29T01:59:27;98958.47;;;9.61;100.00
46876;BME280;32866;50.160;14.768;2023-04-29T02:01:52;98961.66;;;9.59;100.00
46876;BME280;32866;50.160;14.768;2023-04-29T02:04:17;98937.09;;;9.34;100.00
46876;BME280;32866;50.160;14.768;2023-04-29T02:06:43;98928.00;;;9.37;100.00
46876;BME280;32866;50.160;14.768;2023-04-29T02:09:08;98961.00;;;9.55;100.00
46876;BME280;32866;50.160;14.768;2023-04-29T02:11:34;98966.34;;;9.59;100.00
46876;BME280;32866;50.160;14.768;2023-04-29T02:13:59;98967.75;;;9.63;100.00
46876;BME280;32866;50.160;14.768;2023-04-29T02:16:24;98969.66;;;9.54;100.00
46876;BME280;32866;50.160;14.768;2023-04-29T02:18:50;98971.22;;;9.42;100.00
46876;BME280;32866;50.160;14.768;2023-04-29T02:21:15;98966.25;;;9.50;100.00
46876;BME280;32866;50.160;14.768;2023-04-29T02:23:41;98932.81;;;9.33;100.00
46876;BME280;32866;50.160;14.768;2023-04-29T02:26:06;98962.75;;;9.49;100.00
46876;BME280;32866;50.160;14.768;2023-04-29T02:28:33;98973.38;;;9.47;100.00
46876;BME280;32866;50.160;14.768;2023-04-29T02:30:59;98953.19;;;9.19;100.00
46876;BME280;32866;50.160;14.768;2023-04-29T02:33:24;98966.63;;;9.39;100.00
46876;BME280;32866;50.160;14.768;2023-04-29T02:35:50;98935.34;;;9.14;100.00
46876;BME280;32866;50.160;14.768;2023-04-29T02:38:15;98945.84;;;9.16;100.00
46876;BME280;32866;50.160;14.768;2023-04-29T02:40:42;98938.63;;;9.09;100.00
46876;BME280;32866;50.160;14.768;2023-04-29T02:43:08;98976.91;;;9.22;100.00
46876;BME280;32866;50.160;14.768;2023-04-29T02:45:34;98949.25;;;8.94;100.00
46876;BME280;32866;50.160;14.768;2023-04-29T02:47:59;98941.91;;;8.91;100.00
46876;BME280;32866;50.160;14.768;2023-04-29T02:50:24;98940.28;;;8.81;100.00
46876;BME280;32866;50.160;14.768;2023-04-29T02:52:50;98963.69;;;9.20;100.00
46876;BME280;32866;50.160;14.768;2023-04-29T02:55:16;98977.00;;;9.18;100.00
46876;BME280;32866;50.160;14.768;2023-04-29T02:57:43;98977.53;;;9.13;100.00
46876;BME280;32866;50.160;14.768;2023-04-29T03:00:09;98965.84;;;9.13;100.00
46876;BME280;32866;50.160;14.768;2023-04-29T03:02:35;98940.06;;;9.01;100.00
46876;BME280;32866;50.160;14.768;2023-04-29T03:05:00;98969.78;;;9.12;100.00
46876;BME280;32866;50.160;14.768;2023-04-29T03:07:25;98950.88;;;9.04;100.00
46876;BME280;32866;50.160;14.768;2023-04-29T03:09:52;98944.44;;;8.98;100.00
46876;BME280;32866;50.160;14.768;2023-04-29T03:12:18;98937.13;;;8.95;100.00
46876;BME280;32866;50.160;14.768;2023-04-29T03:14:43;98937.00;;;8.99;100.00
46876;BME280;32866;50.160;14.768;2023-04-29T03:17:08;98961.25;;;9.22;100.00
46876;BME280;32866;50.160;14.768;2023-04-29T03:19:34;98967.72;;;9.28;100.00
46876;BME280;32866;50.160;14.768;2023-04-29T03:22:00;98943.66;;;9.23;100.00
46876;BME280;32866;50.160;14.768;2023-04-29T03:24:25;98937.09;;;9.21;100.00
46876;BME280;32866;50.160;14.768;2023-04-29T03:26:51;98966.47;;;9.55;100.00
46876;BME280;32866;50.160;14.768;2023-04-29T03:29:16;98925.06;;;9.31;100.00
46876;BME280;32866;50.160;14.768;2023-04-29T03:31:42;98960.16;;;9.45;100.00
46876;BME280;32866;50.160;14.768;2023-04-29T03:34:07;98961.13;;;9.39;100.00
46876;BME280;32866;50.160;14.768;2023-04-29T03:36:32;98958.63;;;9.32;100.00
46876;BME280;32866;50.160;14.768;2023-04-29T03:38:58;98962.56;;;9.31;100.00
46876;BME280;32866;50.160;14.768;2023-04-29T03:41:23;98928.78;;;9.24;100.00
46876;BME280;32866;50.160;14.768;2023-04-29T03:43:49;98941.44;;;9.31;100.00
46876;BME280;32866;50.160;14.768;2023-04-29T03:46:15;98959.03;;;9.43;100.00
46876;BME280;32866;50.160;14.768;2023-04-29T03:48:41;98934.47;;;9.30;100.00
46876;BME280;32866;50.160;14.768;2023-04-29T03:51:06;98956.09;;;9.37;100.00
46876;BME280;32866;50.160;14.768;2023-04-29T03:53:33;98959.28;;;9.36;100.00
46876;BME280;32866;50.160;14.768;2023-04-29T03:55:59;98956.88;;;9.38;100.00
46876;BME280;32866;50.160;14.768;2023-04-29T03:58:25;98957.19;;;9.40;100.00
46876;BME280;32866;50.160;14.768;2023-04-29T04:00:50;98965.75;;;9.42;100.00
46876;BME280;32866;50.160;14.768;2023-04-29T04:03:16;98964.63;;;9.39;100.00
46876;BME280;32866;50.160;14.768;2023-04-29T04:05:41;98908.56;;;9.09;100.00
46876;BME280;32866;50.160;14.768;2023-04-29T04:08:06;98949.53;;;9.47;100.00
46876;BME280;32866;50.160;14.768;2023-04-29T04:10:32;98941.50;;;9.53;100.00
46876;BME280;32866;50.160;14.768;2023-04-29T04:12:57;98952.88;;;9.64;100.00
46876;BME280;32866;50.160;14.768;2023-04-29T04:15:23;98939.22;;;9.52;100.00
46876;BME280;32866;50.160;14.768;2023-04-29T04:17:48;98917.63;;;9.19;100.00
46876;BME280;32866;50.160;14.768;2023-04-29T04:20:13;98948.53;;;9.54;100.00
46876;BME280;32866;50.160;14.768;2023-04-29T04:22:39;98948.41;;;9.58;100.00
46876;BME280;32866;50.160;14.768;2023-04-29T04:25:05;98943.22;;;9.73;100.00
46876;BME280;32866;50.160;14.768;2023-04-29T04:27:31;98957.66;;;9.73;100.00
46876;BME280;32866;50.160;14.768;2023-04-29T04:29:56;98964.56;;;9.65;100.00
46876;BME280;32866;50.160;14.768;2023-04-29T04:32:22;98954.25;;;9.47;100.00
46876;BME280;32866;50.160;14.768;2023-04-29T04:34:48;98959.78;;;9.56;100.00
46876;BME280;32866;50.160;14.768;2023-04-29T04:37:13;98932.13;;;9.41;100.00
46876;BME280;32866;50.160;14.768;2023-04-29T04:39:39;98934.41;;;9.56;100.00
46876;BME280;32866;50.160;14.768;2023-04-29T04:42:04;98970.28;;;9.71;100.00
46876;BME280;32866;50.160;14.768;2023-04-29T04:44:30;98982.66;;;9.62;100.00
46876;BME280;32866;50.160;14.768;2023-04-29T04:46:55;98957.19;;;9.40;100.00
46876;BME280;32866;50.160;14.768;2023-04-29T04:49:22;98966.47;;;9.55;100.00
46876;BME280;32866;50.160;14.768;2023-04-29T04:51:48;98970.53;;;9.51;100.00
46876;BME280;32866;50.160;14.768;2023-04-29T04:54:14;98936.22;;;9.37;100.00
46876;BME280;32866;50.160;14.768;2023-04-29T04:56:39;98932.69;;;9.36;100.00
46876;BME280;32866;50.160;14.768;2023-04-29T04:59:05;98931.38;;;9.41;100.00
46876;BME280;32866;50.160;14.768;2023-04-29T05:01:30;98949.31;;;9.77;100.00
46876;BME280;32866;50.160;14.768;2023-04-29T05:03:56;98924.22;;;9.56;100.00
46876;BME280;32866;50.160;14.768;2023-04-29T05:06:22;98954.03;;;9.76;100.00
46876;BME280;32866;50.160;14.768;2023-04-29T05:08:47;98949.31;;;9.77;100.00
46876;BME280;32866;50.160;14.768;2023-04-29T05:11:20;98956.53;;;9.83;100.00
46876;BME280;32866;50.160;14.768;2023-04-29T05:13:46;98949.84;;;9.84;100.00
46876;BME280;32866;50.160;14.768;2023-04-29T05:16:12;98912.56;;;10.00;100.00
46876;BME280;32866;50.160;14.768;2023-04-29T05:18:37;98912.22;;;10.11;100.00
46876;BME280;32866;50.160;14.768;2023-04-29T05:21:03;98947.22;;;10.60;100.00
46876;BME280;32866;50.160;14.768;2023-04-29T05:23:28;98957.38;;;10.82;100.00
46876;BME280;32866;50.160;14.768;2023-04-29T05:25:54;98967.47;;;10.94;100.00
46876;BME280;32866;50.160;14.768;2023-04-29T05:28:20;98976.72;;;10.87;100.00
46876;BME280;32866;50.160;14.768;2023-04-29T05:30:45;98977.66;;;10.84;100.00
46876;BME280;32866;50.160;14.768;2023-04-29T05:33:12;98942.72;;;10.44;100.00
46876;BME280;32866;50.160;14.768;2023-04-29T05:35:37;98977.88;;;10.46;100.00
46876;BME280;32866;50.160;14.768;2023-04-29T05:38:03;98945.84;;;10.33;100.00
46876;BME280;32866;50.160;14.768;2023-04-29T05:40:28;98959.19;;;10.53;100.00
46876;BME280;32866;50.160;14.768;2023-04-29T05:45:29;98940.66;;;10.35;100.00
46876;BME280;32866;50.160;14.768;2023-04-29T05:47:54;98952.91;;;10.44;100.00
46876;BME280;32866;50.160;14.768;2023-04-29T05:50:19;98975.47;;;10.79;100.00
46876;BME280;32866;50.160;14.768;2023-04-29T05:52:45;98956.00;;;10.55;100.00
46876;BME280;32866;50.160;14.768;2023-04-29T05:55:10;98941.97;;;10.75;100.00
46876;BME280;32866;50.160;14.768;2023-04-29T05:57:35;98976.09;;;10.83;100.00
46876;BME280;32866;50.160;14.768;2023-04-29T06:00:02;98980.25;;;10.88;100.00
46876;BME280;32866;50.160;14.768;2023-04-29T06:02:28;98979.00;;;10.80;100.00
46876;BME280;32866;50.160;14.768;2023-04-29T06:04:53;98957.03;;;10.48;100.00
46876;BME280;32866;50.160;14.768;2023-04-29T06:07:18;98953.41;;;10.51;100.00
46876;BME280;32866;50.160;14.768;2023-04-29T06:09:44;98965.22;;;10.39;100.00
46876;BME280;32866;50.160;14.768;2023-04-29T06:12:09;98980.63;;;10.77;100.00
46876;BME280;32866;50.160;14.768;2023-04-29T06:14:35;98978.44;;;10.94;100.00
46876;BME280;32866;50.160;14.768;2023-04-29T06:17:00;98956.69;;;11.00;100.00
46876;BME280;32866;50.160;14.768;2023-04-29T06:19:26;98978.50;;;11.53;100.00
46876;BME280;32866;50.160;14.768;2023-04-29T06:21:51;98985.09;;;11.83;100.00
46876;BME280;32866;50.160;14.768;2023-04-29T06:24:17;98964.50;;;11.79;100.00
46876;BME280;32866;50.160;14.768;2023-04-29T06:26:42;98988.34;;;12.19;100.00
46876;BME280;32866;50.160;14.768;2023-04-29T06:29:08;98991.84;;;12.19;100.00
46876;BME280;32866;50.160;14.768;2023-04-29T06:31:33;98988.47;;;12.24;100.00
46876;BME280;32866;50.160;14.768;2023-04-29T06:33:59;98966.50;;;12.24;100.00
46876;BME280;32866;50.160;14.768;2023-04-29T06:36:24;98984.47;;;12.62;100.00
46876;BME280;32866;50.160;14.768;2023-04-29T06:38:51;98954.06;;;12.66;100.00
46876;BME280;32866;50.160;14.768;2023-04-29T06:41:16;98989.47;;;12.83;100.00
46876;BME280;32866;50.160;14.768;2023-04-29T06:43:42;98947.13;;;13.23;100.00
46876;BME280;32866;50.160;14.768;2023-04-29T06:46:07;98970.72;;;14.26;100.00
46876;BME280;32866;50.160;14.768;2023-04-29T06:48:33;98973.53;;;14.56;100.00
46876;BME280;32866;50.160;14.768;2023-04-29T06:50:58;98972.47;;;14.83;100.00
46876;BME280;32866;50.160;14.768;2023-04-29T06:53:24;98980.84;;;15.39;100.00
46876;BME280;32866;50.160;14.768;2023-04-29T06:55:49;98992.31;;;15.32;100.00
46876;BME280;32866;50.160;14.768;2023-04-29T06:58:16;98988.13;;;15.21;100.00
46876;BME280;32866;50.160;14.768;2023-04-29T07:00:46;98969.59;;;15.22;100.00
46876;BME280;32866;50.160;14.768;2023-04-29T07:03:12;98953.28;;;15.80;100.00
46876;BME280;32866;50.160;14.768;2023-04-29T07:05:37;98977.16;;;15.63;100.00
46876;BME280;32866;50.160;14.768;2023-04-29T07:08:05;98962.50;;;15.36;100.00
46876;BME280;32866;50.160;14.768;2023-04-29T07:10:30;98966.09;;;15.63;100.00
46876;BME280;32866;50.160;14.768;2023-04-29T07:12:56;98969.59;;;15.43;100.00
46876;BME280;32866;50.160;14.768;2023-04-29T07:15:21;98974.66;;;16.53;100.00
46876;BME280;32866;50.160;14.768;2023-04-29T07:17:47;98982.72;;;16.30;100.00
46876;BME280;32866;50.160;14.768;2023-04-29T07:20:12;98976.47;;;15.88;100.00
46876;BME280;32866;50.160;14.768;2023-04-29T07:22:38;98975.56;;;15.56;100.00
46876;BME280;32866;50.160;14.768;2023-04-29T07:25:04;98986.53;;;15.50;100.00
46876;BME280;32866;50.160;14.768;2023-04-29T07:27:29;98985.16;;;15.61;100.00
46876;BME280;32866;50.160;14.768;2023-04-29T07:29:55;98973.94;;;15.29;100.00
46876;BME280;32866;50.160;14.768;2023-04-29T07:32:21;98990.03;;;15.86;100.00
46876;BME280;32866;50.160;14.768;2023-04-29T07:34:47;98984.09;;;16.14;100.00
46876;BME280;32866;50.160;14.768;2023-04-29T07:37:12;98989.50;;;16.55;100.00
46876;BME280;32866;50.160;14.768;2023-04-29T07:39:38;98990.06;;;17.66;100.00
46876;BME280;32866;50.160;14.768;2023-04-29T07:42:03;98996.88;;;17.22;100.00
46876;BME280;32866;50.160;14.768;2023-04-29T07:44:28;98980.81;;;17.75;100.00
46876;BME280;32866;50.160;14.768;2023-04-29T07:46:54;98984.59;;;19.11;100.00
46876;BME280;32866;50.160;14.768;2023-04-29T07:49:19;98968.63;;;19.51;100.00
46876;BME280;32866;50.160;14.768;2023-04-29T07:51:44;98997.25;;;20.05;100.00
46876;BME280;32866;50.160;14.768;2023-04-29T07:54:10;98961.13;;;18.56;100.00
46876;BME280;32866;50.160;14.768;2023-04-29T07:56:35;98994.03;;;17.54;100.00
46876;BME280;32866;50.160;14.768;2023-04-29T07:59:00;98992.28;;;18.05;100.00
46876;BME280;32866;50.160;14.768;2023-04-29T08:01:26;98992.00;;;17.49;100.00
46876;BME280;32866;50.160;14.768;2023-04-29T08:03:52;98992.88;;;16.91;100.00
46876;BME280;32866;50.160;14.768;2023-04-29T08:06:18;98994.22;;;17.88;100.00
46876;BME280;32866;50.160;14.768;2023-04-29T08:08:46;98983.63;;;19.95;100.00
46876;BME280;32866;50.160;14.768;2023-04-29T08:11:15;98993.75;;;20.82;100.00
46876;BME280;32866;50.160;14.768;2023-04-29T08:13:40;98989.19;;;19.95;100.00
46876;BME280;32866;50.160;14.768;2023-04-29T08:16:05;98990.16;;;20.87;100.00
46876;BME280;32866;50.160;14.768;2023-04-29T08:18:30;98984.03;;;21.43;100.00
46876;BME280;32866;50.160;14.768;2023-04-29T08:20:56;98972.06;;;20.33;100.00
46876;BME280;32866;50.160;14.768;2023-04-29T08:23:21;98985.91;;;21.10;100.00
46876;BME280;32866;50.160;14.768;2023-04-29T08:25:46;98976.28;;;19.98;100.00
46876;BME280;32866;50.160;14.768;2023-04-29T08:28:12;98994.38;;;19.40;100.00
46876;BME280;32866;50.160;14.768;2023-04-29T08:30:40;98982.84;;;17.80;100.00
46876;BME280;32866;50.160;14.768;2023-04-29T08:33:05;98998.00;;;16.78;100.00
46876;BME280;32866;50.160;14.768;2023-04-29T08:35:32;98984.63;;;16.18;100.00
46876;BME280;32866;50.160;14.768;2023-04-29T08:37:57;98988.72;;;15.82;100.00
46876;BME280;32866;50.160;14.768;2023-04-29T08:40:22;98954.69;;;15.55;100.00
46876;BME280;32866;50.160;14.768;2023-04-29T08:42:48;98986.22;;;15.28;100.00
46876;BME280;32866;50.160;14.768;2023-04-29T08:45:18;98997.38;;;15.18;100.00
46876;BME280;32866;50.160;14.768;2023-04-29T08:47:44;99001.78;;;14.65;100.00
46876;BME280;32866;50.160;14.768;2023-04-29T08:50:10;98999.59;;;14.16;100.00
46876;BME280;32866;50.160;14.768;2023-04-29T08:52:35;98995.03;;;14.13;100.00
46876;BME280;32866;50.160;14.768;2023-04-29T08:55:01;98999.88;;;14.03;100.00
46876;BME280;32866;50.160;14.768;2023-04-29T08:57:27;99017.31;;;14.39;100.00
46876;BME280;32866;50.160;14.768;2023-04-29T08:59:53;98999.03;;;14.12;100.00
46876;BME280;32866;50.160;14.768;2023-04-29T09:02:19;99020.34;;;14.65;100.00
46876;BME280;32866;50.160;14.768;2023-04-29T09:04:54;99022.63;;;14.81;100.00
46876;BME280;32866;50.160;14.768;2023-04-29T09:07:22;99019.00;;;15.05;100.00
46876;BME280;32866;50.160;14.768;2023-04-29T09:09:48;99019.50;;;15.39;100.00
46876;BME280;32866;50.160;14.768;2023-04-29T09:12:14;98999.75;;;15.82;100.00
46876;BME280;32866;50.160;14.768;2023-04-29T09:14:40;99018.34;;;16.22;100.00
46876;BME280;32866;50.160;14.768;2023-04-29T09:17:05;99026.25;;;17.51;100.00
46876;BME280;32866;50.160;14.768;2023-04-29T09:19:31;99030.00;;;19.48;100.00
46876;BME280;32866;50.160;14.768;2023-04-29T09:21:57;98999.16;;;20.68;100.00
46876;BME280;32866;50.160;14.768;2023-04-29T09:24:27;99022.22;;;21.79;100.00
46876;BME280;32866;50.160;14.768;2023-04-29T09:26:53;99022.84;;;22.99;100.00
46876;BME280;32866;50.160;14.768;2023-04-29T09:29:19;99012.84;;;24.51;100.00
46876;BME280;32866;50.160;14.768;2023-04-29T09:31:45;99010.38;;;23.99;100.00
46876;BME280;32866;50.160;14.768;2023-04-29T09:34:11;99010.63;;;25.12;100.00
46876;BME280;32866;50.160;14.768;2023-04-29T09:36:45;99009.53;;;24.73;100.00
46876;BME280;32866;50.160;14.768;2023-04-29T09:39:15;99013.31;;;22.43;100.00
46876;BME280;32866;50.160;14.768;2023-04-29T09:41:57;99004.84;;;19.98;100.00
46876;BME280;32866;50.160;14.768;2023-04-29T09:44:30;99009.34;;;19.03;100.00
46876;BME280;32866;50.160;14.768;2023-04-29T09:47:02;99023.53;;;18.11;100.00
46876;BME280;32866;50.160;14.768;2023-04-29T09:49:33;99020.34;;;18.41;100.00
46876;BME280;32866;50.160;14.768;2023-04-29T09:52:13;99012.28;;;19.56;100.00
46876;BME280;32866;50.160;14.768;2023-04-29T09:54:41;99024.97;;;18.89;100.00
46876;BME280;32866;50.160;14.768;2023-04-29T09:57:09;99020.56;;;18.21;100.00
46876;BME280;32866;50.160;14.768;2023-04-29T09:59:39;99027.34;;;17.65;100.00
46876;BME280;32866;50.160;14.768;2023-04-29T10:02:16;99021.81;;;17.28;100.00
46876;BME280;32866;50.160;14.768;2023-04-29T10:04:44;99020.03;;;16.66;100.00
46876;BME280;32866;50.160;14.768;2023-04-29T10:07:13;99019.50;;;16.36;100.00
46876;BME280;32866;50.160;14.768;2023-04-29T10:09:39;99025.25;;;16.85;100.00
46876;BME280;32866;50.160;14.768;2023-04-29T10:12:04;99030.47;;;17.41;100.00
46876;BME280;32866;50.160;14.768;2023-04-29T10:14:38;99019.03;;;17.65;100.00
46876;BME280;32866;50.160;14.768;2023-04-29T10:17:10;99040.84;;;17.52;100.00
46876;BME280;32866;50.160;14.768;2023-04-29T10:19:46;99027.66;;;17.78;100.00
46876;BME280;32866;50.160;14.768;2023-04-29T10:22:45;99029.19;;;18.45;100.00
46876;BME280;32866;50.160;14.768;2023-04-29T10:25:11;99018.09;;;19.58;100.00
46876;BME280;32866;50.160;14.768;2023-04-29T10:27:41;99014.78;;;20.35;100.00
46876;BME280;32866;50.160;14.768;2023-04-29T10:30:11;99032.78;;;19.42;100.00
46876;BME280;32866;50.160;14.768;2023-04-29T10:32:39;99024.47;;;19.08;100.00
46876;BME280;32866;50.160;14.768;2023-04-29T10:35:08;99029.47;;;18.70;100.00
46876;BME280;32866;50.160;14.768;2023-04-29T10:37:35;99024.06;;;18.15;100.00
46876;BME280;32866;50.160;14.768;2023-04-29T10:40:14;99045.88;;;17.16;100.00
46876;BME280;32866;50.160;14.768;2023-04-29T10:42:46;99059.41;;;16.09;100.00
46876;BME280;32866;50.160;14.768;2023-04-29T10:50:34;99077.41;;;14.10;100.00
46876;BME280;32866;50.160;14.768;2023-04-29T10:53:04;99040.38;;;13.54;100.00
46876;BME280;32866;50.160;14.768;2023-04-29T10:55:30;99063.81;;;13.49;100.00
46876;BME280;32866;50.160;14.768;2023-04-29T10:57:56;99076.50;;;13.47;100.00
46876;BME280;32866;50.160;14.768;2023-04-29T11:02:52;99058.19;;;14.01;100.00
46876;BME280;32866;50.160;14.768;2023-04-29T11:05:29;99071.59;;;14.72;100.00
46876;BME280;32866;50.160;14.768;2023-04-29T11:08:11;99066.22;;;15.43;100.00
46876;BME280;32866;50.160;14.768;2023-04-29T11:10:41;99066.94;;;17.39;100.00
46876;BME280;32866;50.160;14.768;2023-04-29T11:13:23;99071.56;;;19.98;100.00
46876;BME280;32866;50.160;14.768;2023-04-29T11:15:50;99073.31;;;22.88;100.00
46876;BME280;32866;50.160;14.768;2023-04-29T11:18:16;99061.63;;;22.70;100.00
46876;BME280;32866;50.160;14.768;2023-04-29T11:23:29;99038.25;;;20.87;100.00
46876;BME280;32866;50.160;14.768;2023-04-29T11:25:54;99072.91;;;20.45;100.00
46876;BME280;32866;50.160;14.768;2023-04-29T11:28:22;99071.63;;;19.59;100.00
46876;BME280;32866;50.160;14.768;2023-04-29T11:30:49;99069.91;;;19.56;100.00
46876;BME280;32866;50.160;14.768;2023-04-29T11:33:15;99064.13;;;19.14;100.00
46876;BME280;32866;50.160;14.768;2023-04-29T11:35:41;99066.56;;;19.69;100.00
46876;BME280;32866;50.160;14.768;2023-04-29T11:38:08;99068.63;;;20.85;100.00
46876;BME280;32866;50.160;14.768;2023-04-29T11:40:40;99058.31;;;20.27;100.00
46876;BME280;32866;50.160;14.768;2023-04-29T11:43:06;99060.53;;;20.40;100.00
46876;BME280;32866;50.160;14.768;2023-04-29T11:45:34;99073.19;;;20.35;100.00
46876;BME280;32866;50.160;14.768;2023-04-29T11:48:00;99052.44;;;19.55;100.00
46876;BME280;32866;50.160;14.768;2023-04-29T11:50:28;99069.38;;;20.38;100.00
46876;BME280;32866;50.160;14.768;2023-04-29T11:52:56;99080.84;;;20.77;100.00
46876;BME280;32866;50.160;14.768;2023-04-29T11:55:22;99068.06;;;22.46;100.00
46876;BME280;32866;50.160;14.768;2023-04-29T11:57:48;99072.75;;;23.54;99.81
46876;BME280;32866;50.160;14.768;2023-04-29T12:00:15;99047.75;;;24.36;87.42
46876;BME280;32866;50.160;14.768;2023-04-29T12:02:45;99071.66;;;25.06;74.66
46876;BME280;32866;50.160;14.768;2023-04-29T12:05:11;99067.66;;;24.46;73.10
46876;BME280;32866;50.160;14.768;2023-04-29T12:07:38;99071.66;;;25.06;74.30
46876;BME280;32866;50.160;14.768;2023-04-29T12:10:08;99080.03;;;25.41;66.17
46876;BME280;32866;50.160;14.768;2023-04-29T12:12:34;99072.75;;;23.54;72.16
46876;BME280;32866;50.160;14.768;2023-04-29T12:15:02;99062.69;;;24.87;72.83
46876;BME280;32866;50.160;14.768;2023-04-29T12:17:28;99075.97;;;25.07;63.96
46876;BME280;32866;50.160;14.768;2023-04-29T12:19:54;99048.50;;;22.97;70.27
46876;BME280;32866;50.160;14.768;2023-04-29T12:22:19;99063.88;;;21.41;77.39
46876;BME280;32866;50.160;14.768;2023-04-29T12:24:44;99063.72;;;20.02;85.27
46876;BME280;32866;50.160;14.768;2023-04-29T12:27:11;99072.56;;;20.07;86.26
46876;BME280;32866;50.160;14.768;2023-04-29T12:29:37;99049.97;;;19.29;91.70
46876;BME280;32866;50.160;14.768;2023-04-29T12:32:03;99081.28;;;19.18;89.17
46876;BME280;32866;50.160;14.768;2023-04-29T12:34:28;99078.25;;;18.99;89.94
46876;BME280;32866;50.160;14.768;2023-04-29T12:36:55;99074.41;;;18.74;92.08
46876;BME280;32866;50.160;14.768;2023-04-29T12:39:21;99071.94;;;19.04;93.91
46876;BME280;32866;50.160;14.768;2023-04-29T12:41:47;99079.75;;;19.23;91.46
46876;BME280;32866;50.160;14.768;2023-04-29T12:44:12;99065.34;;;19.19;91.82
46876;BME280;32866;50.160;14.768;2023-04-29T12:46:38;99067.63;;;18.98;90.99
46876;BME280;32866;50.160;14.768;2023-04-29T12:49:04;99072.94;;;19.18;93.81
46876;BME280;32866;50.160;14.768;2023-04-29T12:51:34;99085.56;;;19.25;95.58
46876;BME280;32866;50.160;14.768;2023-04-29T12:54:03;99073.94;;;19.32;95.76
46876;BME280;32866;50.160;14.768;2023-04-29T12:56:29;99064.09;;;19.25;92.42
46876;BME280;32866;50.160;14.768;2023-04-29T12:58:55;99036.00;;;18.44;94.59
46876;BME280;32866;50.160;14.768;2023-04-29T13:01:20;99072.50;;;18.26;94.50
46876;BME280;32866;50.160;14.768;2023-04-29T13:03:46;99047.19;;;17.58;98.40